sensor_id;sensor_type;location;lat;lon;timestamp;P1;durP1;ratioP1;P2;durP2;ratioP2
37903;SDS011;23738;50.422;18.758;2023-03-23T00:00:13;45.50;;;26.30;;
37903;SDS011;23738;50.422;18.758;2023-03-23T00:02:41;50.90;;;29.80;;
37903;SDS011;23738;50.422;18.758;2023-03-23T00:05:09;47.70;;;28.60;;
37903;SDS011;23738;50.422;18.758;2023-03-23T00:07:37;45.20;;;26.30;;
37903;SDS011;23738;50.422;18.758;2023-03-23T00:10:10;53.60;;;31.10;;
37903;SDS011;23738;50.422;18.758;2023-03-23T00:12:38;57.50;;;32.80;;
37903;SDS011;23738;50.422;18.758;2023-03-23T00:15:09;52.10;;;30.10;;
37903;SDS011;23738;50.422;18.758;2023-03-23T00:17:38;45.80;;;25.40;;
37903;SDS011;23738;50.422;18.758;2023-03-23T00:20:07;43.10;;;26.30;;
37903;SDS011;23738;50.422;18.758;2023-03-23T00:22:37;42.40;;;23.80;;
37903;SDS011;23738;50.422;18.758;2023-03-23T00:25:07;43.80;;;25.20;;
37903;SDS011;23738;50.422;18.758;2023-03-23T00:27:35;41.40;;;26.10;;
37903;SDS011;23738;50.422;18.758;2023-03-23T00:30:02;46.60;;;27.20;;
37903;SDS011;23738;50.422;18.758;2023-03-23T00:32:31;40.90;;;25.30;;
37903;SDS011;23738;50.422;18.758;2023-03-23T00:34:58;38.10;;;23.40;;
37903;SDS011;23738;50.422;18.758;2023-03-23T00:37:26;35.30;;;23.20;;
37903;SDS011;23738;50.422;18.758;2023-03-23T00:39:53;31.30;;;21.60;;
37903;SDS011;23738;50.422;18.758;2023-03-23T00:42:23;39.30;;;24.20;;
37903;SDS011;23738;50.422;18.758;2023-03-23T00:44:50;41.50;;;22.90;;
37903;SDS011;23738;50.422;18.758;2023-03-23T00:47:26;32.40;;;22.80;;
37903;SDS011;23738;50.422;18.758;2023-03-23T00:49:54;38.30;;;24.50;;
37903;SDS011;23738;50.422;18.758;2023-03-23T00:52:22;37.80;;;24.40;;
37903;SDS011;23738;50.422;18.758;2023-03-23T00:54:50;39.20;;;24.90;;
37903;SDS011;23738;50.422;18.758;2023-03-23T00:57:17;43.30;;;24.60;;
37903;SDS011;23738;50.422;18.758;2023-03-23T00:59:44;36.00;;;24.30;;
37903;SDS011;23738;50.422;18.758;2023-03-23T01:02:11;36.80;;;22.70;;
37903;SDS011;23738;50.422;18.758;2023-03-23T01:04:38;26.80;;;20.80;;
37903;SDS011;23738;50.422;18.758;2023-03-23T01:07:05;37.50;;;22.50;;
37903;SDS011;23738;50.422;18.758;2023-03-23T01:09:34;34.40;;;21.50;;
37903;SDS011;23738;50.422;18.758;2023-03-23T01:12:01;43.80;;;23.60;;
37903;SDS011;23738;50.422;18.758;2023-03-23T01:14:29;33.60;;;23.30;;
37903;SDS011;23738;50.422;18.758;2023-03-23T01:16:56;35.70;;;23.40;;
37903;SDS011;23738;50.422;18.758;2023-03-23T01:19:24;34.40;;;23.10;;
37903;SDS011;23738;50.422;18.758;2023-03-23T01:21:51;31.10;;;20.40;;
37903;SDS011;23738;50.422;18.758;2023-03-23T01:24:18;39.00;;;22.30;;
37903;SDS011;23738;50.422;18.758;2023-03-23T01:26:46;29.50;;;20.10;;
37903;SDS011;23738;50.422;18.758;2023-03-23T01:29:14;28.80;;;20.70;;
37903;SDS011;23738;50.422;18.758;2023-03-23T01:31:41;34.30;;;22.50;;
37903;SDS011;23738;50.422;18.758;2023-03-23T01:34:08;37.50;;;23.80;;
37903;SDS011;23738;50.422;18.758;2023-03-23T01:36:36;30.80;;;22.00;;
37903;SDS011;23738;50.422;18.758;2023-03-23T01:39:04;33.30;;;22.10;;
37903;SDS011;23738;50.422;18.758;2023-03-23T01:41:32;33.70;;;21.60;;
37903;SDS011;23738;50.422;18.758;2023-03-23T01:44:01;33.70;;;21.30;;
37903;SDS011;23738;50.422;18.758;2023-03-23T01:46:31;28.30;;;19.70;;
37903;SDS011;23738;50.422;18.758;2023-03-23T01:49:01;36.90;;;21.60;;
37903;SDS011;23738;50.422;18.758;2023-03-23T01:51:34;35.10;;;23.10;;
37903;SDS011;23738;50.422;18.758;2023-03-23T01:54:07;42.50;;;25.40;;
37903;SDS011;23738;50.422;18.758;2023-03-23T01:56:40;44.80;;;28.10;;
37903;SDS011;23738;50.422;18.758;2023-03-23T01:59:11;47.90;;;29.40;;
37903;SDS011;23738;50.422;18.758;2023-03-23T02:01:41;50.80;;;27.80;;
37903;SDS011;23738;50.422;18.758;2023-03-23T02:04:10;60.60;;;29.20;;
37903;SDS011;23738;50.422;18.758;2023-03-23T02:06:40;46.80;;;26.80;;
37903;SDS011;23738;50.422;18.758;2023-03-23T02:09:08;46.00;;;25.40;;
37903;SDS011;23738;50.422;18.758;2023-03-23T02:11:37;54.50;;;29.40;;
37903;SDS011;23738;50.422;18.758;2023-03-23T02:14:04;48.90;;;29.50;;
37903;SDS011;23738;50.422;18.758;2023-03-23T02:16:33;40.90;;;26.00;;
37903;SDS011;23738;50.422;18.758;2023-03-23T02:19:12;44.10;;;26.60;;
37903;SDS011;23738;50.422;18.758;2023-03-23T02:22:10;49.70;;;26.00;;
37903;SDS011;23738;50.422;18.758;2023-03-23T02:24:57;50.60;;;26.70;;
37903;SDS011;23738;50.422;18.758;2023-03-23T02:27:42;41.20;;;23.80;;
37903;SDS011;23738;50.422;18.758;2023-03-23T02:30:34;43.80;;;25.30;;
37903;SDS011;23738;50.422;18.758;2023-03-23T02:33:30;45.10;;;24.70;;
37903;SDS011;23738;50.422;18.758;2023-03-23T02:36:09;58.80;;;31.40;;
37903;SDS011;23738;50.422;18.758;2023-03-23T02:38:46;44.40;;;25.90;;
37903;SDS011;23738;50.422;18.758;2023-03-23T02:41:22;48.30;;;26.10;;
37903;SDS011;23738;50.422;18.758;2023-03-23T02:43:54;43.50;;;24.10;;
37903;SDS011;23738;50.422;18.758;2023-03-23T02:46:23;45.60;;;23.90;;
37903;SDS011;23738;50.422;18.758;2023-03-23T02:48:51;40.00;;;22.40;;
37903;SDS011;23738;50.422;18.758;2023-03-23T02:51:21;42.30;;;25.40;;
37903;SDS011;23738;50.422;18.758;2023-03-23T02:53:51;38.10;;;26.20;;
37903;SDS011;23738;50.422;18.758;2023-03-23T02:56:21;38.60;;;25.10;;
37903;SDS011;23738;50.422;18.758;2023-03-23T02:58:51;39.10;;;24.40;;
37903;SDS011;23738;50.422;18.758;2023-03-23T03:04:17;31.30;;;20.40;;
37903;SDS011;23738;50.422;18.758;2023-03-23T03:06:50;31.40;;;20.40;;
37903;SDS011;23738;50.422;18.758;2023-03-23T03:09:30;23.30;;;17.40;;
37903;SDS011;23738;50.422;18.758;2023-03-23T03:12:04;27.90;;;19.50;;
37903;SDS011;23738;50.422;18.758;2023-03-23T03:14:36;29.60;;;20.20;;
37903;SDS011;23738;50.422;18.758;2023-03-23T03:17:08;28.30;;;19.60;;
37903;SDS011;23738;50.422;18.758;2023-03-23T03:19:41;29.80;;;19.50;;
37903;SDS011;23738;50.422;18.758;2023-03-23T03:22:12;25.80;;;17.60;;
37903;SDS011;23738;50.422;18.758;2023-03-23T03:24:41;28.50;;;17.20;;
37903;SDS011;23738;50.422;18.758;2023-03-23T03:27:11;21.70;;;16.30;;
37903;SDS011;23738;50.422;18.758;2023-03-23T03:29:42;24.30;;;16.40;;
37903;SDS011;23738;50.422;18.758;2023-03-23T03:32:24;27.60;;;17.60;;
37903;SDS011;23738;50.422;18.758;2023-03-23T03:34:56;20.70;;;17.60;;
37903;SDS011;23738;50.422;18.758;2023-03-23T03:37:25;22.70;;;19.50;;
37903;SDS011;23738;50.422;18.758;2023-03-23T03:39:52;24.60;;;17.30;;
37903;SDS011;23738;50.422;18.758;2023-03-23T03:42:21;18.60;;;15.30;;
37903;SDS011;23738;50.422;18.758;2023-03-23T03:44:48;18.20;;;14.40;;
37903;SDS011;23738;50.422;18.758;2023-03-23T03:47:15;23.00;;;14.90;;
37903;SDS011;23738;50.422;18.758;2023-03-23T03:49:42;19.40;;;16.40;;
37903;SDS011;23738;50.422;18.758;2023-03-23T03:52:09;16.90;;;15.20;;
37903;SDS011;23738;50.422;18.758;2023-03-23T03:54:37;18.10;;;15.60;;
37903;SDS011;23738;50.422;18.758;2023-03-23T03:57:06;16.50;;;14.90;;
37903;SDS011;23738;50.422;18.758;2023-03-23T03:59:33;16.50;;;13.40;;
37903;SDS011;23738;50.422;18.758;2023-03-23T04:02:00;19.90;;;13.70;;
37903;SDS011;23738;50.422;18.758;2023-03-23T04:04:28;12.50;;;10.90;;
37903;SDS011;23738;50.422;18.758;2023-03-23T04:06:55;13.30;;;11.70;;
37903;SDS011;23738;50.422;18.758;2023-03-23T04:09:24;15.70;;;12.80;;
37903;SDS011;23738;50.422;18.758;2023-03-23T04:11:52;16.90;;;12.90;;
37903;SDS011;23738;50.422;18.758;2023-03-23T04:14:20;13.50;;;11.50;;
37903;SDS011;23738;50.422;18.758;2023-03-23T04:16:47;16.70;;;13.10;;
37903;SDS011;23738;50.422;18.758;2023-03-23T04:19:17;14.70;;;10.80;;
37903;SDS011;23738;50.422;18.758;2023-03-23T04:21:45;18.50;;;11.80;;
37903;SDS011;23738;50.422;18.758;2023-03-23T04:24:14;10.60;;;9.60;;
37903;SDS011;23738;50.422;18.758;2023-03-23T04:26:41;13.60;;;9.90;;
37903;SDS011;23738;50.422;18.758;2023-03-23T04:29:10;12.70;;;11.30;;
37903;SDS011;23738;50.422;18.758;2023-03-23T04:31:41;12.00;;;10.60;;
37903;SDS011;23738;50.422;18.758;2023-03-23T04:34:10;14.00;;;11.20;;
37903;SDS011;23738;50.422;18.758;2023-03-23T04:36:39;16.00;;;13.30;;
37903;SDS011;23738;50.422;18.758;2023-03-23T04:39:07;12.20;;;10.90;;
37903;SDS011;23738;50.422;18.758;2023-03-23T04:41:36;11.60;;;10.40;;
37903;SDS011;23738;50.422;18.758;2023-03-23T04:44:04;13.30;;;10.40;;
37903;SDS011;23738;50.422;18.758;2023-03-23T04:46:31;12.40;;;10.30;;
37903;SDS011;23738;50.422;18.758;2023-03-23T04:48:59;13.90;;;11.60;;
37903;SDS011;23738;50.422;18.758;2023-03-23T04:51:28;15.10;;;11.60;;
37903;SDS011;23738;50.422;18.758;2023-03-23T04:53:56;16.40;;;13.20;;
37903;SDS011;23738;50.422;18.758;2023-03-23T04:56:24;15.60;;;13.70;;
37903;SDS011;23738;50.422;18.758;2023-03-23T04:58:51;11.00;;;9.90;;
37903;SDS011;23738;50.422;18.758;2023-03-23T05:01:18;10.70;;;9.50;;
37903;SDS011;23738;50.422;18.758;2023-03-23T05:03:46;17.90;;;14.30;;
37903;SDS011;23738;50.422;18.758;2023-03-23T05:06:13;20.30;;;12.20;;
37903;SDS011;23738;50.422;18.758;2023-03-23T05:08:40;17.90;;;15.60;;
37903;SDS011;23738;50.422;18.758;2023-03-23T05:11:08;18.50;;;14.40;;
37903;SDS011;23738;50.422;18.758;2023-03-23T05:13:35;31.10;;;21.40;;
37903;SDS011;23738;50.422;18.758;2023-03-23T05:16:04;24.30;;;19.10;;
37903;SDS011;23738;50.422;18.758;2023-03-23T05:18:32;23.00;;;16.70;;
37903;SDS011;23738;50.422;18.758;2023-03-23T05:21:00;21.10;;;16.20;;
37903;SDS011;23738;50.422;18.758;2023-03-23T05:23:28;30.10;;;20.00;;
37903;SDS011;23738;50.422;18.758;2023-03-23T05:25:56;21.50;;;18.00;;
37903;SDS011;23738;50.422;18.758;2023-03-23T05:28:26;37.10;;;22.70;;
37903;SDS011;23738;50.422;18.758;2023-03-23T05:30:54;33.30;;;21.30;;
37903;SDS011;23738;50.422;18.758;2023-03-23T05:33:22;33.20;;;24.00;;
37903;SDS011;23738;50.422;18.758;2023-03-23T05:35:49;32.10;;;19.80;;
37903;SDS011;23738;50.422;18.758;2023-03-23T05:38:16;27.60;;;20.00;;
37903;SDS011;23738;50.422;18.758;2023-03-23T05:40:44;25.50;;;17.50;;
37903;SDS011;23738;50.422;18.758;2023-03-23T05:43:11;18.70;;;16.20;;
37903;SDS011;23738;50.422;18.758;2023-03-23T05:45:38;23.00;;;17.10;;
37903;SDS011;23738;50.422;18.758;2023-03-23T05:48:05;27.00;;;17.50;;
37903;SDS011;23738;50.422;18.758;2023-03-23T05:50:32;19.50;;;17.30;;
37903;SDS011;23738;50.422;18.758;2023-03-23T05:53:00;28.80;;;16.50;;
37903;SDS011;23738;50.422;18.758;2023-03-23T05:55:29;28.10;;;16.70;;
37903;SDS011;23738;50.422;18.758;2023-03-23T05:57:56;19.60;;;14.20;;
37903;SDS011;23738;50.422;18.758;2023-03-23T06:00:24;16.50;;;13.90;;
37903;SDS011;23738;50.422;18.758;2023-03-23T06:02:54;25.30;;;15.10;;
37903;SDS011;23738;50.422;18.758;2023-03-23T06:05:22;16.60;;;14.30;;
37903;SDS011;23738;50.422;18.758;2023-03-23T06:07:51;21.80;;;15.10;;
37903;SDS011;23738;50.422;18.758;2023-03-23T06:10:19;26.80;;;17.90;;
37903;SDS011;23738;50.422;18.758;2023-03-23T06:12:46;23.50;;;16.60;;
37903;SDS011;23738;50.422;18.758;2023-03-23T06:15:16;32.80;;;17.00;;
37903;SDS011;23738;50.422;18.758;2023-03-23T06:17:43;25.50;;;14.30;;
37903;SDS011;23738;50.422;18.758;2023-03-23T06:20:11;23.70;;;15.00;;
37903;SDS011;23738;50.422;18.758;2023-03-23T06:22:39;23.20;;;17.60;;
37903;SDS011;23738;50.422;18.758;2023-03-23T06:25:08;27.10;;;16.20;;
37903;SDS011;23738;50.422;18.758;2023-03-23T06:27:36;18.70;;;14.00;;
37903;SDS011;23738;50.422;18.758;2023-03-23T06:30:05;16.60;;;12.50;;
37903;SDS011;23738;50.422;18.758;2023-03-23T06:32:34;12.20;;;10.90;;
37903;SDS011;23738;50.422;18.758;2023-03-23T06:35:02;13.60;;;9.60;;
37903;SDS011;23738;50.422;18.758;2023-03-23T06:37:30;15.90;;;10.80;;
37903;SDS011;23738;50.422;18.758;2023-03-23T06:39:57;12.40;;;11.10;;
37903;SDS011;23738;50.422;18.758;2023-03-23T06:42:25;14.90;;;13.20;;
37903;SDS011;23738;50.422;18.758;2023-03-23T06:44:52;20.50;;;12.50;;
37903;SDS011;23738;50.422;18.758;2023-03-23T06:47:22;16.80;;;12.50;;
37903;SDS011;23738;50.422;18.758;2023-03-23T06:49:49;13.80;;;11.70;;
37903;SDS011;23738;50.422;18.758;2023-03-23T06:52:16;14.10;;;10.40;;
37903;SDS011;23738;50.422;18.758;2023-03-23T06:54:44;14.20;;;10.20;;
37903;SDS011;23738;50.422;18.758;2023-03-23T06:57:11;14.50;;;9.20;;
37903;SDS011;23738;50.422;18.758;2023-03-23T06:59:39;13.40;;;10.70;;
37903;SDS011;23738;50.422;18.758;2023-03-23T07:02:08;13.10;;;9.90;;
37903;SDS011;23738;50.422;18.758;2023-03-23T07:04:37;14.00;;;10.30;;
37903;SDS011;23738;50.422;18.758;2023-03-23T07:07:04;18.70;;;11.70;;
37903;SDS011;23738;50.422;18.758;2023-03-23T07:09:33;18.00;;;12.10;;
37903;SDS011;23738;50.422;18.758;2023-03-23T07:12:00;13.90;;;10.30;;
37903;SDS011;23738;50.422;18.758;2023-03-23T07:14:28;10.70;;;8.90;;
37903;SDS011;23738;50.422;18.758;2023-03-23T07:16:56;11.40;;;10.00;;
37903;SDS011;23738;50.422;18.758;2023-03-23T07:19:23;13.90;;;11.60;;
37903;SDS011;23738;50.422;18.758;2023-03-23T07:21:50;15.70;;;11.90;;
37903;SDS011;23738;50.422;18.758;2023-03-23T07:24:18;17.60;;;12.00;;
37903;SDS011;23738;50.422;18.758;2023-03-23T07:26:45;16.60;;;12.00;;
37903;SDS011;23738;50.422;18.758;2023-03-23T07:29:12;15.20;;;10.50;;
37903;SDS011;23738;50.422;18.758;2023-03-23T07:31:39;16.30;;;10.60;;
37903;SDS011;23738;50.422;18.758;2023-03-23T07:34:06;20.60;;;12.50;;
37903;SDS011;23738;50.422;18.758;2023-03-23T07:36:34;24.40;;;12.60;;
37903;SDS011;23738;50.422;18.758;2023-03-23T07:39:03;19.40;;;12.90;;
37903;SDS011;23738;50.422;18.758;2023-03-23T07:41:31;21.30;;;14.20;;
37903;SDS011;23738;50.422;18.758;2023-03-23T07:43:58;25.30;;;14.20;;
37903;SDS011;23738;50.422;18.758;2023-03-23T07:46:25;24.50;;;14.10;;
37903;SDS011;23738;50.422;18.758;2023-03-23T07:48:53;24.40;;;12.90;;
37903;SDS011;23738;50.422;18.758;2023-03-23T07:51:20;18.90;;;11.20;;
37903;SDS011;23738;50.422;18.758;2023-03-23T07:53:48;17.90;;;11.70;;
37903;SDS011;23738;50.422;18.758;2023-03-23T07:56:16;12.10;;;9.10;;
37903;SDS011;23738;50.422;18.758;2023-03-23T07:58:45;13.00;;;9.80;;
37903;SDS011;23738;50.422;18.758;2023-03-23T08:01:13;15.80;;;10.80;;
37903;SDS011;23738;50.422;18.758;2023-03-23T08:03:41;11.40;;;10.20;;
37903;SDS011;23738;50.422;18.758;2023-03-23T08:06:10;16.70;;;10.10;;
37903;SDS011;23738;50.422;18.758;2023-03-23T08:08:37;9.80;;;7.90;;
37903;SDS011;23738;50.422;18.758;2023-03-23T08:11:06;16.00;;;7.30;;
37903;SDS011;23738;50.422;18.758;2023-03-23T08:13:33;10.20;;;7.60;;
37903;SDS011;23738;50.422;18.758;2023-03-23T13:12:45;5.10;;;2.70;;
37903;SDS011;23738;50.422;18.758;2023-03-23T13:15:18;5.60;;;3.70;;
37903;SDS011;23738;50.422;18.758;2023-03-23T13:17:54;3.40;;;3.10;;
37903;SDS011;23738;50.422;18.758;2023-03-23T13:20:32;5.00;;;3.10;;
37903;SDS011;23738;50.422;18.758;2023-03-23T13:23:09;4.10;;;2.90;;
37903;SDS011;23738;50.422;18.758;2023-03-23T13:25:45;4.30;;;3.20;;
37903;SDS011;23738;50.422;18.758;2023-03-23T13:28:17;3.90;;;3.10;;
37903;SDS011;23738;50.422;18.758;2023-03-23T13:31:01;3.60;;;2.60;;
37903;SDS011;23738;50.422;18.758;2023-03-23T13:33:31;4.10;;;3.10;;
37903;SDS011;23738;50.422;18.758;2023-03-23T13:36:07;6.70;;;2.70;;
37903;SDS011;23738;50.422;18.758;2023-03-23T13:38:36;3.60;;;2.90;;
37903;SDS011;23738;50.422;18.758;2023-03-23T13:41:08;3.50;;;3.10;;
37903;SDS011;23738;50.422;18.758;2023-03-23T13:43:38;6.00;;;4.80;;
37903;SDS011;23738;50.422;18.758;2023-03-23T13:46:12;5.30;;;4.80;;
37903;SDS011;23738;50.422;18.758;2023-03-23T13:48:50;5.30;;;3.80;;
37903;SDS011;23738;50.422;18.758;2023-03-23T13:51:33;5.90;;;3.20;;
37903;SDS011;23738;50.422;18.758;2023-03-23T13:54:14;5.80;;;3.20;;
37903;SDS011;23738;50.422;18.758;2023-03-23T13:56:53;7.30;;;3.60;;
37903;SDS011;23738;50.422;18.758;2023-03-23T13:59:30;12.30;;;4.80;;
37903;SDS011;23738;50.422;18.758;2023-03-23T14:05:09;7.30;;;5.10;;
37903;SDS011;23738;50.422;18.758;2023-03-23T14:07:58;4.90;;;3.70;;
37903;SDS011;23738;50.422;18.758;2023-03-23T14:10:38;5.60;;;3.80;;
37903;SDS011;23738;50.422;18.758;2023-03-23T14:13:16;5.60;;;3.90;;
37903;SDS011;23738;50.422;18.758;2023-03-23T14:15:54;7.70;;;4.30;;
37903;SDS011;23738;50.422;18.758;2023-03-23T14:18:26;4.40;;;4.00;;
37903;SDS011;23738;50.422;18.758;2023-03-23T14:20:57;5.20;;;4.30;;
37903;SDS011;23738;50.422;18.758;2023-03-23T14:23:26;5.40;;;4.10;;
37903;SDS011;23738;50.422;18.758;2023-03-23T14:25:58;5.60;;;3.20;;
37903;SDS011;23738;50.422;18.758;2023-03-23T14:28:35;4.40;;;3.80;;
37903;SDS011;23738;50.422;18.758;2023-03-23T14:31:05;4.80;;;3.00;;
37903;SDS011;23738;50.422;18.758;2023-03-23T14:33:44;7.50;;;3.70;;
37903;SDS011;23738;50.422;18.758;2023-03-23T14:36:11;4.20;;;3.80;;
37903;SDS011;23738;50.422;18.758;2023-03-23T14:38:38;4.30;;;3.60;;
37903;SDS011;23738;50.422;18.758;2023-03-23T14:41:06;6.10;;;3.40;;
37903;SDS011;23738;50.422;18.758;2023-03-23T14:43:37;4.60;;;3.10;;
37903;SDS011;23738;50.422;18.758;2023-03-23T14:46:06;4.00;;;3.40;;
37903;SDS011;23738;50.422;18.758;2023-03-23T14:48:36;6.50;;;3.50;;
37903;SDS011;23738;50.422;18.758;2023-03-23T14:51:06;6.90;;;4.00;;
37903;SDS011;23738;50.422;18.758;2023-03-23T14:53:43;10.90;;;6.00;;
37903;SDS011;23738;50.422;18.758;2023-03-23T14:56:11;8.70;;;7.00;;
37903;SDS011;23738;50.422;18.758;2023-03-23T14:58:43;9.40;;;5.40;;
37903;SDS011;23738;50.422;18.758;2023-03-23T15:01:13;6.90;;;4.60;;
37903;SDS011;23738;50.422;18.758;2023-03-23T15:03:44;6.30;;;3.70;;
37903;SDS011;23738;50.422;18.758;2023-03-23T15:06:17;4.40;;;3.30;;
37903;SDS011;23738;50.422;18.758;2023-03-23T15:08:48;6.30;;;5.10;;
37903;SDS011;23738;50.422;18.758;2023-03-23T15:11:22;5.10;;;4.60;;
37903;SDS011;23738;50.422;18.758;2023-03-23T15:13:55;11.80;;;9.80;;
37903;SDS011;23738;50.422;18.758;2023-03-23T15:16:29;28.90;;;17.30;;
37903;SDS011;23738;50.422;18.758;2023-03-23T15:18:58;15.30;;;9.70;;
37903;SDS011;23738;50.422;18.758;2023-03-23T15:21:29;15.10;;;9.20;;
37903;SDS011;23738;50.422;18.758;2023-03-23T15:24:00;10.50;;;6.70;;
37903;SDS011;23738;50.422;18.758;2023-03-23T15:26:30;10.50;;;8.70;;
37903;SDS011;23738;50.422;18.758;2023-03-23T15:29:01;19.20;;;14.70;;
37903;SDS011;23738;50.422;18.758;2023-03-23T15:31:34;14.30;;;11.30;;
37903;SDS011;23738;50.422;18.758;2023-03-23T15:34:10;21.40;;;15.80;;
37903;SDS011;23738;50.422;18.758;2023-03-23T15:36:41;12.20;;;10.90;;
37903;SDS011;23738;50.422;18.758;2023-03-23T15:39:10;12.00;;;9.80;;
37903;SDS011;23738;50.422;18.758;2023-03-23T15:41:46;43.00;;;23.00;;
37903;SDS011;23738;50.422;18.758;2023-03-23T15:44:20;32.60;;;19.00;;
37903;SDS011;23738;50.422;18.758;2023-03-23T15:46:53;14.00;;;9.60;;
37903;SDS011;23738;50.422;18.758;2023-03-23T15:49:30;10.60;;;7.90;;
37903;SDS011;23738;50.422;18.758;2023-03-23T15:51:57;9.20;;;7.40;;
37903;SDS011;23738;50.422;18.758;2023-03-23T15:54:28;14.30;;;11.20;;
37903;SDS011;23738;50.422;18.758;2023-03-23T15:56:57;17.70;;;13.50;;
37903;SDS011;23738;50.422;18.758;2023-03-23T15:59:25;20.90;;;15.90;;
37903;SDS011;23738;50.422;18.758;2023-03-23T16:01:52;16.80;;;11.40;;
37903;SDS011;23738;50.422;18.758;2023-03-23T16:04:20;20.20;;;13.30;;
37903;SDS011;23738;50.422;18.758;2023-03-23T16:06:47;8.80;;;7.80;;
37903;SDS011;23738;50.422;18.758;2023-03-23T16:09:21;6.90;;;5.40;;
37903;SDS011;23738;50.422;18.758;2023-03-23T16:11:48;7.10;;;4.90;;
37903;SDS011;23738;50.422;18.758;2023-03-23T16:14:16;7.90;;;7.10;;
37903;SDS011;23738;50.422;18.758;2023-03-23T16:16:44;10.10;;;6.80;;
37903;SDS011;23738;50.422;18.758;2023-03-23T16:19:13;9.40;;;5.90;;
37903;SDS011;23738;50.422;18.758;2023-03-23T16:21:41;14.20;;;8.30;;
37903;SDS011;23738;50.422;18.758;2023-03-23T16:24:09;13.30;;;9.30;;
37903;SDS011;23738;50.422;18.758;2023-03-23T16:26:37;13.60;;;9.10;;
37903;SDS011;23738;50.422;18.758;2023-03-23T16:29:09;7.30;;;5.90;;
37903;SDS011;23738;50.422;18.758;2023-03-23T16:31:38;6.30;;;5.00;;
37903;SDS011;23738;50.422;18.758;2023-03-23T16:34:05;15.00;;;5.10;;
37903;SDS011;23738;50.422;18.758;2023-03-23T16:36:32;9.20;;;5.40;;
37903;SDS011;23738;50.422;18.758;2023-03-23T16:39:00;17.20;;;6.30;;
37903;SDS011;23738;50.422;18.758;2023-03-23T16:41:27;9.50;;;5.70;;
37903;SDS011;23738;50.422;18.758;2023-03-23T16:43:54;8.70;;;6.30;;
37903;SDS011;23738;50.422;18.758;2023-03-23T16:46:21;9.60;;;6.50;;
37903;SDS011;23738;50.422;18.758;2023-03-23T16:48:49;13.50;;;7.90;;
37903;SDS011;23738;50.422;18.758;2023-03-23T16:51:16;9.30;;;6.90;;
37903;SDS011;23738;50.422;18.758;2023-03-23T16:53:43;21.50;;;16.30;;
37903;SDS011;23738;50.422;18.758;2023-03-23T16:56:10;13.70;;;9.40;;
37903;SDS011;23738;50.422;18.758;2023-03-23T16:58:38;9.70;;;7.70;;
37903;SDS011;23738;50.422;18.758;2023-03-23T17:01:06;12.50;;;9.00;;
37903;SDS011;23738;50.422;18.758;2023-03-23T17:03:34;15.90;;;11.30;;
37903;SDS011;23738;50.422;18.758;2023-03-23T17:06:01;16.50;;;12.00;;
37903;SDS011;23738;50.422;18.758;2023-03-23T17:08:29;19.50;;;14.10;;
37903;SDS011;23738;50.422;18.758;2023-03-23T17:10:56;15.50;;;11.90;;
37903;SDS011;23738;50.422;18.758;2023-03-23T17:13:24;16.50;;;14.00;;
37903;SDS011;23738;50.422;18.758;2023-03-23T17:15:53;20.10;;;14.70;;
37903;SDS011;23738;50.422;18.758;2023-03-23T17:18:21;18.50;;;14.40;;
37903;SDS011;23738;50.422;18.758;2023-03-23T17:20:50;14.80;;;12.00;;
37903;SDS011;23738;50.422;18.758;2023-03-23T17:23:18;17.10;;;13.20;;
37903;SDS011;23738;50.422;18.758;2023-03-23T17:25:46;14.70;;;12.10;;
37903;SDS011;23738;50.422;18.758;2023-03-23T17:28:15;17.70;;;13.20;;
37903;SDS011;23738;50.422;18.758;2023-03-23T17:30:43;24.80;;;12.80;;
37903;SDS011;23738;50.422;18.758;2023-03-23T17:33:10;26.90;;;14.60;;
37903;SDS011;23738;50.422;18.758;2023-03-23T17:35:38;19.60;;;15.80;;
37903;SDS011;23738;50.422;18.758;2023-03-23T17:38:06;15.10;;;12.30;;
37903;SDS011;23738;50.422;18.758;2023-03-23T17:40:34;12.80;;;9.40;;
37903;SDS011;23738;50.422;18.758;2023-03-23T17:43:01;14.70;;;9.90;;
37903;SDS011;23738;50.422;18.758;2023-03-23T17:45:29;13.30;;;9.50;;
37903;SDS011;23738;50.422;18.758;2023-03-23T17:47:57;10.40;;;8.50;;
37903;SDS011;23738;50.422;18.758;2023-03-23T17:50:24;13.80;;;8.80;;
37903;SDS011;23738;50.422;18.758;2023-03-23T17:52:51;10.20;;;8.60;;
37903;SDS011;23738;50.422;18.758;2023-03-23T17:55:18;11.60;;;8.70;;
37903;SDS011;23738;50.422;18.758;2023-03-23T17:57:45;11.10;;;8.40;;
37903;SDS011;23738;50.422;18.758;2023-03-23T18:00:13;8.90;;;7.70;;
37903;SDS011;23738;50.422;18.758;2023-03-23T18:02:42;9.60;;;7.60;;
37903;SDS011;23738;50.422;18.758;2023-03-23T18:05:09;9.20;;;7.90;;
37903;SDS011;23738;50.422;18.758;2023-03-23T18:07:36;11.10;;;9.10;;
37903;SDS011;23738;50.422;18.758;2023-03-23T18:10:05;11.50;;;9.90;;
37903;SDS011;23738;50.422;18.758;2023-03-23T18:12:37;11.90;;;9.70;;
37903;SDS011;23738;50.422;18.758;2023-03-23T18:15:06;11.40;;;9.50;;
37903;SDS011;23738;50.422;18.758;2023-03-23T18:17:34;13.90;;;9.70;;
37903;SDS011;23738;50.422;18.758;2023-03-23T18:20:01;11.60;;;9.20;;
37903;SDS011;23738;50.422;18.758;2023-03-23T18:22:29;15.30;;;10.10;;
37903;SDS011;23738;50.422;18.758;2023-03-23T18:24:56;15.40;;;11.00;;
37903;SDS011;23738;50.422;18.758;2023-03-23T18:27:24;15.40;;;10.40;;
37903;SDS011;23738;50.422;18.758;2023-03-23T18:29:51;19.30;;;10.80;;
37903;SDS011;23738;50.422;18.758;2023-03-23T18:32:19;14.20;;;11.10;;
37903;SDS011;23738;50.422;18.758;2023-03-23T18:34:46;23.60;;;15.00;;
37903;SDS011;23738;50.422;18.758;2023-03-23T18:37:15;18.60;;;12.80;;
37903;SDS011;23738;50.422;18.758;2023-03-23T18:39:42;14.00;;;10.50;;
37903;SDS011;23738;50.422;18.758;2023-03-23T18:42:09;14.40;;;11.60;;
37903;SDS011;23738;50.422;18.758;2023-03-23T18:44:37;15.30;;;11.60;;
37903;SDS011;23738;50.422;18.758;2023-03-23T18:47:04;16.10;;;12.40;;
37903;SDS011;23738;50.422;18.758;2023-03-23T18:49:31;14.90;;;11.60;;
37903;SDS011;23738;50.422;18.758;2023-03-23T18:51:58;17.50;;;12.50;;
37903;SDS011;23738;50.422;18.758;2023-03-23T18:54:26;15.80;;;12.10;;
37903;SDS011;23738;50.422;18.758;2023-03-23T18:56:53;15.30;;;11.80;;
37903;SDS011;23738;50.422;18.758;2023-03-23T18:59:21;14.90;;;11.30;;
37903;SDS011;23738;50.422;18.758;2023-03-23T19:01:48;11.80;;;9.70;;
37903;SDS011;23738;50.422;18.758;2023-03-23T19:04:16;14.60;;;11.80;;
37903;SDS011;23738;50.422;18.758;2023-03-23T19:06:47;15.00;;;11.30;;
37903;SDS011;23738;50.422;18.758;2023-03-23T19:09:14;15.90;;;11.00;;
37903;SDS011;23738;50.422;18.758;2023-03-23T19:11:41;12.60;;;10.10;;
37903;SDS011;23738;50.422;18.758;2023-03-23T19:14:08;13.90;;;9.70;;
37903;SDS011;23738;50.422;18.758;2023-03-23T19:16:36;14.90;;;9.80;;
37903;SDS011;23738;50.422;18.758;2023-03-23T19:19:04;14.20;;;11.10;;
37903;SDS011;23738;50.422;18.758;2023-03-23T19:21:32;29.80;;;19.80;;
37903;SDS011;23738;50.422;18.758;2023-03-23T19:24:00;29.20;;;18.10;;
37903;SDS011;23738;50.422;18.758;2023-03-23T19:26:29;21.10;;;14.20;;
37903;SDS011;23738;50.422;18.758;2023-03-23T19:28:58;22.90;;;13.00;;
37903;SDS011;23738;50.422;18.758;2023-03-23T19:31:25;17.70;;;10.90;;